Time;durP1;ratioP1;P1;durP2;ratioP2;P2;SDS_P1;SDS_P2;PMS_P1;PMS_P2;Temp;Humidity;BMP_temperature;BMP_pressure;BME280_temperature;BME280_humidity;BME280_pressure;Samples;Min_cycle;Max_cycle;Signal;HPM_P1;HPM_P2
2021/04/18 00:00:18;;;;;;;6.05;3.80;;;7.90;67.90;;;;;;4907234;29;20036;-79
2021/04/18 00:02:48;;;;;;;13.73;4.28;;;7.90;68.10;;;;;;4897631;29;20120;-79
2021/04/18 00:05:15;;;;;;;13.77;6.15;;;7.90;68.10;;;;;;4905601;29;20041;-79
2021/04/18 00:07:41;;;;;;;21.80;12.85;;;7.90;68.20;;;;;;4898784;29;20500;-79
2021/04/18 00:10:08;;;;;;;30.40;19.20;;;7.90;68.20;;;;;;4899100;29;20081;-79
2021/04/18 00:12:34;;;;;;;40.95;25.33;;;7.80;68.20;;;;;;4898787;29;20120;-79
2021/04/18 00:15:00;;;;;;;32.70;21.58;;;7.80;68.30;;;;;;4889003;29;20499;-79
2021/04/18 00:17:25;;;;;;;35.05;22.58;;;7.70;68.30;;;;;;4899751;29;20553;-79
2021/04/18 00:19:52;;;;;;;28.45;19.25;;;7.70;68.50;;;;;;4904661;29;20110;-79
2021/04/18 00:22:17;;;;;;;25.40;15.50;;;7.70;68.70;;;;;;4899223;29;20111;-79
2021/04/18 00:24:43;;;;;;;20.52;12.05;;;7.60;68.90;;;;;;4885649;29;20119;-79
2021/04/18 00:27:08;;;;;;;15.32;7.88;;;7.60;69.10;;;;;;4898451;29;20529;-79
2021/04/18 00:29:35;;;;;;;15.55;6.97;;;7.60;69.10;;;;;;4897614;29;20506;-79
2021/04/18 00:32:00;;;;;;;13.18;5.85;;;7.60;69.10;;;;;;4897271;29;20084;-79
2021/04/18 00:34:26;;;;;;;14.13;5.70;;;7.50;69.10;;;;;;4897630;29;20029;-79
2021/04/18 00:36:53;;;;;;;9.98;4.72;;;7.50;69.10;;;;;;4897258;29;20032;-79
2021/04/18 00:39:19;;;;;;;9.05;4.10;;;7.50;69.20;;;;;;4901034;29;20029;-79
2021/04/18 00:41:44;;;;;;;11.27;4.05;;;7.50;69.30;;;;;;4897223;29;20489;-79
2021/04/18 00:44:11;;;;;;;9.45;3.97;;;7.40;69.40;;;;;;4903883;29;20146;-79
2021/04/18 00:46:38;;;;;;;8.57;4.20;;;7.40;69.50;;;;;;4903455;29;20033;-79
2021/04/18 00:49:04;;;;;;;10.30;4.05;;;7.40;69.70;;;;;;4898712;29;20478;-79
2021/04/18 00:51:29;;;;;;;10.05;4.03;;;7.40;69.80;;;;;;4898388;29;20486;-79
2021/04/18 00:53:55;;;;;;;7.50;3.80;;;7.40;69.90;;;;;;4898162;29;20029;-80
2021/04/18 00:56:20;;;;;;;8.25;3.78;;;7.40;69.80;;;;;;4894719;29;20029;-80
2021/04/18 00:58:47;;;;;;;8.82;3.83;;;7.40;69.70;;;;;;4865482;29;20507;-80
2021/04/18 01:01:12;;;;;;;10.00;3.58;;;7.30;69.60;;;;;;4888091;29;20687;-80
2021/04/18 01:03:38;;;;;;;8.02;4.05;;;7.30;69.60;;;;;;4911578;29;20032;-80
2021/04/18 01:06:05;;;;;;;10.73;4.03;;;7.30;69.70;;;;;;4903289;29;20044;-81
2021/04/18 01:08:30;;;;;;;7.72;3.60;;;7.20;69.90;;;;;;4898063;29;20419;-80
2021/04/18 01:10:56;;;;;;;10.55;3.95;;;7.20;70.10;;;;;;4897779;29;20185;-80
2021/04/18 01:13:22;;;;;;;9.98;3.88;;;7.10;70.10;;;;;;4911899;29;20032;-80
2021/04/18 01:15:48;;;;;;;8.60;4.15;;;7.10;70.20;;;;;;4899780;29;20021;-80
2021/04/18 01:18:13;;;;;;;15.02;4.28;;;7.00;70.30;;;;;;4897116;29;20040;-80
2021/04/18 01:20:39;;;;;;;9.88;3.85;;;7.00;70.50;;;;;;4904856;29;20490;-80
2021/04/18 01:23:05;;;;;;;9.23;3.78;;;7.00;70.70;;;;;;4897111;29;20036;-80
2021/04/18 01:25:30;;;;;;;8.93;4.05;;;7.00;70.80;;;;;;4897237;29;20127;-80
2021/04/18 01:27:56;;;;;;;7.55;3.83;;;7.00;70.90;;;;;;4898348;29;20167;-80
2021/04/18 01:30:25;;;;;;;7.40;4.07;;;7.00;71.00;;;;;;4898312;29;20115;-80
2021/04/18 01:32:53;;;;;;;13.75;4.13;;;6.90;71.00;;;;;;4916811;29;20024;-80
2021/04/18 01:35:19;;;;;;;6.80;3.90;;;6.90;71.10;;;;;;4911607;29;20614;-80
2021/04/18 01:37:45;;;;;;;13.23;4.15;;;6.90;71.20;;;;;;4915890;29;20517;-80
2021/04/18 01:40:22;;;;;;;9.95;5.03;;;6.90;71.40;;;;;;4916776;29;20039;-80
2021/04/18 01:42:48;;;;;;;12.35;4.20;;;6.90;71.70;;;;;;4901190;29;20029;-80
2021/04/18 01:45:15;;;;;;;8.88;4.47;;;6.80;71.60;;;;;;4898231;29;20037;-80
2021/04/18 01:47:41;;;;;;;12.48;4.70;;;6.80;71.70;;;;;;4902741;29;20516;-80
2021/04/18 01:50:10;;;;;;;12.20;4.43;;;6.80;71.70;;;;;;4902801;29;20045;-80
2021/04/18 01:52:36;;;;;;;9.88;4.40;;;6.80;71.90;;;;;;4893501;29;20033;-80
2021/04/18 01:55:05;;;;;;;10.32;4.90;;;6.80;71.90;;;;;;4898750;29;20033;-80
2021/04/18 01:57:32;;;;;;;8.43;4.65;;;6.80;72.10;;;;;;4910226;29;20047;-80
2021/04/18 01:59:58;;;;;;;7.63;4.50;;;6.70;72.20;;;;;;4906701;29;20039;-80
2021/04/18 02:02:23;;;;;;;14.57;4.65;;;6.70;72.20;;;;;;4902513;29;20036;-80
2021/04/18 02:04:51;;;;;;;13.20;4.80;;;6.60;72.40;;;;;;4899603;29;20450;-80
2021/04/18 02:07:17;;;;;;;10.82;4.22;;;6.60;72.50;;;;;;4907377;29;20048;-80
2021/04/18 02:09:43;;;;;;;11.52;4.82;;;6.60;72.80;;;;;;4902979;29;20136;-80
2021/04/18 02:12:10;;;;;;;28.63;15.20;;;6.60;73.00;;;;;;4915359;29;20127;-80
2021/04/18 02:14:36;;;;;;;48.88;31.20;;;6.50;73.00;;;;;;4896296;29;20107;-80
2021/04/18 02:17:03;;;;;;;52.22;34.63;;;6.50;73.10;;;;;;4899288;29;20710;-80
2021/04/18 02:19:29;;;;;;;62.10;40.83;;;6.50;73.40;;;;;;4904546;29;20039;-80
2021/04/18 02:21:55;;;;;;;53.47;35.28;;;6.50;73.60;;;;;;4912257;29;20111;-80
2021/04/18 02:24:21;;;;;;;35.05;19.45;;;6.40;73.40;;;;;;4917343;29;20036;-80
2021/04/18 02:26:46;;;;;;;28.35;15.20;;;6.40;73.50;;;;;;4912525;29;20516;-80
2021/04/18 02:29:12;;;;;;;29.05;15.05;;;6.40;73.50;;;;;;4913245;29;20394;-80
2021/04/18 02:31:38;;;;;;;20.35;13.07;;;6.40;73.60;;;;;;4903019;29;20056;-80
2021/04/18 02:34:04;;;;;;;19.98;11.70;;;6.30;73.60;;;;;;4912361;29;20037;-80
2021/04/18 02:36:30;;;;;;;19.27;10.88;;;6.40;73.70;;;;;;4903413;29;20036;-80
2021/04/18 02:38:55;;;;;;;18.45;11.63;;;6.30;73.80;;;;;;4908005;29;20067;-80
2021/04/18 02:41:22;;;;;;;23.83;13.48;;;6.30;73.80;;;;;;4907320;29;20089;-81
2021/04/18 02:43:48;;;;;;;19.67;11.05;;;6.20;73.90;;;;;;4904233;29;20398;-80
2021/04/18 02:46:14;;;;;;;17.33;10.57;;;6.20;74.10;;;;;;4901992;29;20056;-81
2021/04/18 02:48:39;;;;;;;15.70;7.10;;;6.20;74.20;;;;;;4907032;29;20483;-80
2021/04/18 02:51:05;;;;;;;17.35;7.50;;;6.10;74.30;;;;;;4885754;29;20029;-80
2021/04/18 02:53:31;;;;;;;13.82;5.82;;;6.10;74.50;;;;;;4901101;29;20032;-80
2021/04/18 02:55:56;;;;;;;12.68;5.35;;;6.10;74.70;;;;;;4901811;29;20037;-80
2021/04/18 02:58:22;;;;;;;16.20;6.00;;;6.10;74.90;;;;;;4899048;29;20032;-80
2021/04/18 03:00:47;;;;;;;10.10;5.10;;;6.10;74.90;;;;;;4901893;29;20036;-80
2021/04/18 03:03:13;;;;;;;15.98;5.18;;;6.10;75.00;;;;;;4903962;29;20042;-80
2021/04/18 03:05:39;;;;;;;10.60;4.78;;;6.10;75.10;;;;;;4910457;29;21429;-80
2021/04/18 03:08:05;;;;;;;13.70;5.40;;;6.10;75.80;;;;;;4912977;29;20075;-80
2021/04/18 03:10:30;;;;;;;8.43;4.75;;;6.10;75.20;;;;;;4908237;29;20119;-80
2021/04/18 03:12:56;;;;;;;13.15;5.53;;;6.00;75.80;;;;;;4905696;29;20056;-80
2021/04/18 03:15:22;;;;;;;12.70;5.63;;;6.00;75.30;;;;;;4901871;29;20047;-80
2021/04/18 03:17:48;;;;;;;12.65;5.20;;;6.00;75.50;;;;;;4917242;29;20454;-80
2021/04/18 03:20:15;;;;;;;11.20;5.47;;;5.90;76.20;;;;;;4908880;29;20041;-80
2021/04/18 03:22:41;;;;;;;10.68;5.22;;;5.90;75.80;;;;;;4905294;29;20696;-80
2021/04/18 03:25:07;;;;;;;10.52;5.30;;;5.90;75.90;;;;;;4904142;29;20056;-80
2021/04/18 03:27:34;;;;;;;12.85;5.55;;;5.80;76.70;;;;;;4884282;29;20035;-80
2021/04/18 03:30:00;;;;;;;12.75;5.28;;;5.80;76.20;;;;;;4902425;29;20024;-80
2021/04/18 03:32:25;;;;;;;11.48;6.07;;;5.80;76.40;;;;;;4900453;29;20037;-80
2021/04/18 03:34:51;;;;;;;16.02;6.00;;;5.80;76.40;;;;;;4905687;29;20036;-80
2021/04/18 03:37:17;;;;;;;12.50;5.45;;;5.80;76.50;;;;;;4898991;29;20028;-80
2021/04/18 03:39:42;;;;;;;9.57;5.50;;;5.80;76.50;;;;;;4899931;29;20066;-80
2021/04/18 03:42:08;;;;;;;11.27;5.90;;;5.80;76.70;;;;;;4898896;29;20035;-80
2021/04/18 03:44:35;;;;;;;15.68;5.95;;;5.80;76.80;;;;;;4899760;29;20107;-80
2021/04/18 03:47:01;;;;;;;13.13;5.78;;;5.70;76.80;;;;;;4901003;29;20028;-80
2021/04/18 03:49:26;;;;;;;11.45;6.35;;;5.70;76.80;;;;;;4917377;29;20036;-80
2021/04/18 03:51:52;;;;;;;10.63;5.40;;;5.70;77.00;;;;;;4900314;29;20120;-80
2021/04/18 03:54:19;;;;;;;11.77;5.47;;;5.70;77.10;;;;;;4903893;29;20036;-80
2021/04/18 03:56:45;;;;;;;14.02;5.72;;;5.70;77.20;;;;;;4901815;29;20423;-80
2021/04/18 03:59:10;;;;;;;14.73;5.85;;;5.70;77.20;;;;;;4912433;29;20060;-80
2021/04/18 04:01:36;;;;;;;14.43;6.00;;;5.70;77.20;;;;;;4908020;29;20398;-80
2021/04/18 04:04:02;;;;;;;15.80;6.75;;;5.60;77.40;;;;;;4899238;29;20039;-80
2021/04/18 04:06:27;;;;;;;15.43;6.38;;;5.50;77.50;;;;;;4912226;29;20040;-80
2021/04/18 04:08:53;;;;;;;13.68;6.15;;;5.50;77.70;;;;;;4902085;29;20057;-80
2021/04/18 04:11:18;;;;;;;14.25;6.40;;;5.50;77.90;;;;;;4883557;29;20139;-80
2021/04/18 04:13:44;;;;;;;17.95;5.45;;;5.50;78.00;;;;;;4891406;29;20037;-80
2021/04/18 04:16:10;;;;;;;15.57;7.03;;;5.40;78.00;;;;;;4886957;29;20025;-80
2021/04/18 04:18:35;;;;;;;15.85;6.57;;;5.40;78.10;;;;;;4890197;29;20071;-80
2021/04/18 04:21:01;;;;;;;17.75;7.35;;;5.40;78.10;;;;;;4897929;29;20029;-80
2021/04/18 04:23:27;;;;;;;14.60;7.55;;;5.30;78.10;;;;;;4906662;29;20039;-80
2021/04/18 04:25:52;;;;;;;14.15;6.90;;;5.40;78.20;;;;;;4913903;29;20593;-80
2021/04/18 04:28:18;;;;;;;16.13;7.15;;;5.40;78.20;;;;;;4898571;29;20043;-80
2021/04/18 04:30:43;;;;;;;14.27;6.63;;;5.30;78.10;;;;;;4905707;29;20028;-80
2021/04/18 04:33:09;;;;;;;12.60;6.88;;;5.30;78.30;;;;;;4897501;29;20029;-80
2021/04/18 04:35:39;;;;;;;10.68;6.70;;;5.30;78.30;;;;;;4892824;29;20111;-80
2021/04/18 04:38:04;;;;;;;20.52;7.53;;;5.30;78.40;;;;;;4900279;29;20028;-81
2021/04/18 04:40:30;;;;;;;16.25;7.07;;;5.20;78.30;;;;;;4906633;29;20036;-80
2021/04/18 04:42:56;;;;;;;15.57;7.63;;;5.20;78.50;;;;;;4893409;29;20045;-80
2021/04/18 04:45:21;;;;;;;19.52;7.60;;;5.20;78.60;;;;;;4878954;29;20036;-80
2021/04/18 04:47:47;;;;;;;15.25;6.90;;;5.10;78.80;;;;;;4891293;29;20124;-80
2021/04/18 04:50:13;;;;;;;12.90;7.78;;;5.10;78.90;;;;;;4904687;29;20036;-80
2021/04/18 04:52:38;;;;;;;18.63;10.68;;;5.10;79.00;;;;;;4897909;29;20041;-80
2021/04/18 04:55:04;;;;;;;22.20;11.45;;;5.10;79.00;;;;;;4903028;29;20533;-80
2021/04/18 04:57:30;;;;;;;21.20;11.88;;;5.10;79.00;;;;;;4882971;29;20041;-80
2021/04/18 04:59:56;;;;;;;18.30;11.43;;;5.10;79.10;;;;;;4893535;29;20036;-80
2021/04/18 05:02:21;;;;;;;20.60;10.80;;;5.10;79.10;;;;;;4898776;29;20382;-80
2021/04/18 05:04:47;;;;;;;19.95;10.90;;;5.10;79.30;;;;;;4896694;29;20134;-80
2021/04/18 05:07:12;;;;;;;16.05;9.35;;;5.10;79.40;;;;;;4899568;29;20045;-80
2021/04/18 05:09:38;;;;;;;19.73;9.18;;;5.00;79.50;;;;;;4898453;29;20036;-80
2021/04/18 05:12:05;;;;;;;17.52;9.30;;;5.00;79.80;;;;;;4915696;29;20115;-81
2021/04/18 05:14:30;;;;;;;20.60;8.68;;;5.10;79.90;;;;;;4907779;29;20032;-80
2021/04/18 05:16:56;;;;;;;23.77;10.45;;;5.10;80.00;;;;;;4898024;29;20176;-80
2021/04/18 05:19:22;;;;;;;22.85;10.07;;;5.10;80.00;;;;;;4896849;29;20060;-80
2021/04/18 05:21:47;;;;;;;22.75;10.32;;;5.10;80.10;;;;;;4896919;29;20044;-80
2021/04/18 05:24:13;;;;;;;21.52;11.10;;;5.10;80.20;;;;;;4896870;29;20040;-81
2021/04/18 05:26:38;;;;;;;30.70;15.77;;;5.10;80.20;;;;;;4895577;29;20032;-81
2021/04/18 05:29:04;;;;;;;26.13;16.50;;;5.10;80.30;;;;;;4897131;29;20041;-80
2021/04/18 05:31:30;;;;;;;33.40;20.85;;;5.10;80.50;;;;;;4911293;29;20032;-80
2021/04/18 05:33:55;;;;;;;27.05;15.70;;;5.10;81.40;;;;;;4914872;29;20430;-80
2021/04/18 05:36:21;;;;;;;51.50;29.85;;;5.20;82.40;;;;;;4910114;29;20032;-80
2021/04/18 05:38:46;;;;;;;44.28;27.60;;;5.20;81.90;;;;;;4908944;29;20048;-80
2021/04/18 05:41:12;;;;;;;60.50;38.33;;;5.20;82.10;;;;;;4898141;29;20040;-80
2021/04/18 05:43:37;;;;;;;83.90;53.75;;;5.20;82.20;;;;;;4897840;29;20390;-80
2021/04/18 05:46:03;;;;;;;84.28;53.20;;;5.30;82.30;;;;;;4902103;29;20403;-80
2021/04/18 05:48:29;;;;;;;74.65;47.38;;;5.30;82.40;;;;;;4903103;29;20032;-80
2021/04/18 05:50:54;;;;;;;60.35;38.72;;;5.40;82.40;;;;;;4907825;29;20033;-80
2021/04/18 05:53:20;;;;;;;58.60;38.85;;;5.40;82.30;;;;;;4893343;29;20489;-80
2021/04/18 05:55:46;;;;;;;62.00;38.13;;;5.50;82.30;;;;;;4897888;29;20040;-80
2021/04/18 05:58:12;;;;;;;57.65;33.88;;;5.50;82.20;;;;;;4881541;29;20036;-80
2021/04/18 06:00:39;;;;;;;43.00;28.90;;;5.50;82.40;;;;;;4897442;29;20028;-80
2021/04/18 06:03:05;;;;;;;48.70;29.83;;;5.60;82.40;;;;;;4882562;29;20029;-80
2021/04/18 06:05:31;;;;;;;75.05;51.05;;;5.70;82.20;;;;;;4925183;29;20382;-80
2021/04/18 06:07:56;;;;;;;174.75;116.68;;;5.80;82.10;;;;;;4892429;29;20044;-80
2021/04/18 06:10:22;;;;;;;140.75;94.80;;;5.90;82.30;;;;;;4911010;29;20060;-80
2021/04/18 06:12:48;;;;;;;124.40;90.20;;;5.90;82.50;;;;;;4900778;29;20046;-79
2021/04/18 06:15:14;;;;;;;106.45;74.55;;;6.00;82.60;;;;;;4890696;29;20055;-79
2021/04/18 06:17:39;;;;;;;45.05;26.42;;;6.10;83.00;;;;;;4906967;29;20116;-79
2021/04/18 06:20:07;;;;;;;52.05;32.72;;;6.20;82.90;;;;;;4906674;29;20486;-79
2021/04/18 06:22:33;;;;;;;69.53;49.22;;;6.20;82.90;;;;;;4906847;29;20044;-79
2021/04/18 06:24:59;;;;;;;76.47;57.60;;;6.40;82.50;;;;;;4884680;29;20033;-78
2021/04/18 06:27:25;;;;;;;79.20;58.40;;;6.40;82.20;;;;;;4915068;29;20043;-79
2021/04/18 06:29:50;;;;;;;50.30;34.20;;;6.50;81.70;;;;;;4887140;29;20447;-79
2021/04/18 06:32:16;;;;;;;36.45;21.73;;;6.70;81.40;;;;;;4886394;29;20037;-79
2021/04/18 06:34:41;;;;;;;27.63;15.45;;;6.80;81.00;;;;;;4894132;29;20056;-80
2021/04/18 06:37:07;;;;;;;25.75;12.65;;;7.00;80.60;;;;;;4912134;29;20469;-79
2021/04/18 06:39:33;;;;;;;27.30;10.73;;;7.10;80.50;;;;;;4904891;29;21302;-78
2021/04/18 06:42:02;;;;;;;17.02;8.90;;;7.30;80.10;;;;;;4902783;29;20032;-79
2021/04/18 06:44:29;;;;;;;17.20;9.25;;;7.40;79.50;;;;;;4882112;29;20029;-79
2021/04/18 06:47:00;;;;;;;22.52;9.02;;;7.50;79.20;;;;;;4900197;29;20047;-79
2021/04/18 06:49:27;;;;;;;28.80;9.88;;;7.60;78.80;;;;;;4899089;29;20032;-79
2021/04/18 06:51:53;;;;;;;20.65;8.68;;;7.70;78.40;;;;;;4912452;29;20016;-79
2021/04/18 06:54:19;;;;;;;23.88;9.98;;;7.80;77.90;;;;;;4899772;29;20083;-78
2021/04/18 06:56:45;;;;;;;21.42;9.65;;;7.90;77.60;;;;;;4900171;29;20044;-79
2021/04/18 06:59:11;;;;;;;21.40;9.43;;;8.00;77.50;;;;;;4895836;29;20494;-79
2021/04/18 07:01:36;;;;;;;16.52;9.25;;;8.10;77.20;;;;;;4916912;29;20071;-78
2021/04/18 07:04:09;;;;;;;20.00;9.50;;;8.20;76.90;;;;;;4904174;29;20044;-78
2021/04/18 07:06:37;;;;;;;19.10;8.82;;;8.40;77.30;;;;;;4905010;29;20028;-79
2021/04/18 07:09:03;;;;;;;16.90;7.50;;;8.50;76.40;;;;;;4900108;29;20032;-78
2021/04/18 07:11:48;;;;;;;20.10;8.60;;;8.50;75.90;;;;;;4899289;29;20049;-79
2021/04/18 07:14:22;;;;;;;17.38;8.40;;;8.60;75.50;;;;;;4898895;29;20085;-80
2021/04/18 07:16:49;;;;;;;20.83;7.95;;;8.70;75.20;;;;;;4900555;29;20027;-80
2021/04/18 07:19:26;;;;;;;16.75;8.05;;;8.80;74.80;;;;;;4899101;29;20032;-80
2021/04/18 07:21:55;;;;;;;20.98;8.45;;;9.00;74.90;;;;;;4895229;29;20164;-80
2021/04/18 07:24:23;;;;;;;16.23;7.43;;;9.00;73.80;;;;;;4891729;29;20045;-79
2021/04/18 07:26:56;;;;;;;15.65;7.22;;;9.10;73.30;;;;;;4890183;29;20041;-79
2021/04/18 07:29:22;;;;;;;21.70;8.68;;;9.30;73.00;;;;;;4892603;29;20067;-78
2021/04/18 07:31:48;;;;;;;14.82;7.53;;;9.40;72.60;;;;;;4892434;29;20033;-78
2021/04/18 07:34:16;;;;;;;18.42;8.95;;;9.50;71.50;;;;;;4891334;29;20043;-78
2021/04/18 07:36:47;;;;;;;19.08;10.73;;;9.70;71.10;;;;;;4892766;29;20017;-78
2021/04/18 07:39:15;;;;;;;27.05;15.75;;;9.80;70.90;;;;;;4886829;29;20374;-78
2021/04/18 07:41:53;;;;;;;27.67;16.77;;;10.00;70.30;;;;;;4904925;29;20032;-75
2021/04/18 07:44:19;;;;;;;99.13;74.53;;;10.10;69.70;;;;;;4898338;29;20521;-75
2021/04/18 07:46:47;;;;;;;88.32;68.50;;;10.20;69.10;;;;;;4903664;29;20040;-76
2021/04/18 07:49:13;;;;;;;51.17;37.10;;;10.30;69.20;;;;;;4903635;29;20033;-76
2021/04/18 07:51:42;;;;;;;69.05;49.22;;;10.30;69.00;;;;;;4899117;29;20028;-76
2021/04/18 07:54:09;;;;;;;39.78;30.33;;;10.50;68.10;;;;;;4897723;29;20033;-76
2021/04/18 07:56:35;;;;;;;45.97;34.92;;;10.60;64.90;;;;;;4897919;29;20037;-76
2021/04/18 07:59:01;;;;;;;19.92;12.13;;;10.50;65.00;;;;;;4898767;29;20608;-76
2021/04/18 08:01:27;;;;;;;16.63;7.53;;;10.50;65.50;;;;;;4897593;29;20064;-76
2021/04/18 08:03:52;;;;;;;16.58;6.68;;;10.50;66.20;;;;;;4899598;29;20127;-76
2021/04/18 08:06:19;;;;;;;13.25;7.57;;;10.60;67.30;;;;;;4897069;29;20093;-76
2021/04/18 08:08:49;;;;;;;22.38;7.55;;;10.80;68.60;;;;;;4897913;29;20033;-76
2021/04/18 08:11:18;;;;;;;13.48;7.10;;;10.90;67.50;;;;;;4897747;29;20083;-76
2021/04/18 08:13:50;;;;;;;14.80;7.05;;;10.80;67.10;;;;;;4897892;29;20051;-75
2021/04/18 08:16:30;;;;;;;14.15;7.07;;;10.80;67.40;;;;;;4900627;29;20359;-76
2021/04/18 08:19:10;;;;;;;11.57;6.00;;;11.00;67.80;;;;;;4897059;29;20108;-76
2021/04/18 08:21:38;;;;;;;16.38;6.55;;;11.30;66.40;;;;;;4896138;29;20478;-75
2021/04/18 08:24:25;;;;;;;15.50;5.80;;;11.50;64.80;;;;;;4897630;29;20513;-75
2021/04/18 08:27:05;;;;;;;13.48;6.20;;;11.60;63.90;;;;;;4895340;29;20021;-75
2021/04/18 08:29:32;;;;;;;12.82;6.70;;;11.50;63.50;;;;;;4898048;29;20032;-75
2021/04/18 08:31:57;;;;;;;15.18;6.90;;;11.40;63.70;;;;;;4883770;29;20044;-75
2021/04/18 08:34:35;;;;;;;15.95;7.60;;;11.50;64.80;;;;;;4896738;29;20024;-75
2021/04/18 08:37:03;;;;;;;17.23;6.05;;;11.80;64.30;;;;;;4898300;29;20501;-75
2021/04/18 08:39:35;;;;;;;16.08;7.78;;;12.10;63.20;;;;;;4897477;29;20039;-75
2021/04/18 08:42:03;;;;;;;16.63;8.35;;;12.30;62.60;;;;;;4897583;29;20120;-75
2021/04/18 08:44:36;;;;;;;13.27;7.80;;;12.60;60.80;;;;;;4897637;29;20052;-75
2021/04/18 08:47:14;;;;;;;28.83;16.80;;;12.80;60.50;;;;;;4894997;29;20054;-75
2021/04/18 08:49:52;;;;;;;28.98;20.70;;;12.80;59.60;;;;;;4896660;29;21430;-75
2021/04/18 08:52:34;;;;;;;24.10;16.20;;;13.00;59.30;;;;;;4905650;29;20367;-75
2021/04/18 08:55:23;;;;;;;19.40;9.38;;;13.20;59.00;;;;;;4887803;29;20028;-75
2021/04/18 08:57:49;;;;;;;14.20;7.50;;;13.40;57.70;;;;;;4906153;29;20068;-75
2021/04/18 09:00:16;;;;;;;11.38;7.88;;;13.50;56.50;;;;;;4902899;29;20503;-75
2021/04/18 09:02:52;;;;;;;12.18;5.88;;;13.60;55.80;;;;;;4904519;29;20040;-75
2021/04/18 09:05:20;;;;;;;13.85;7.28;;;13.70;55.20;;;;;;4904895;29;20039;-75
2021/04/18 09:07:46;;;;;;;17.83;11.70;;;13.70;55.40;;;;;;4905549;29;20426;-75
2021/04/18 09:10:13;;;;;;;11.65;5.28;;;13.70;53.80;;;;;;4905594;29;20147;-75
2021/04/18 09:12:38;;;;;;;29.55;22.45;;;13.70;54.00;;;;;;4905458;29;20115;-75
2021/04/18 09:15:06;;;;;;;26.65;20.05;;;13.80;53.30;;;;;;4906796;29;20115;-75
2021/04/18 09:17:33;;;;;;;16.40;6.88;;;13.90;52.70;;;;;;4902236;29;20419;-75
2021/04/18 09:20:10;;;;;;;5.85;4.25;;;14.10;52.70;;;;;;4905558;29;20057;-75
2021/04/18 09:22:38;;;;;;;8.07;5.22;;;14.20;50.70;;;;;;4905266;29;20769;-75
2021/04/18 09:25:09;;;;;;;8.57;3.90;;;14.20;50.40;;;;;;4905889;29;20028;-75
2021/04/18 09:27:46;;;;;;;10.35;4.43;;;14.10;50.90;;;;;;4901008;29;20367;-75
2021/04/18 09:30:27;;;;;;;9.55;3.92;;;14.00;50.80;;;;;;4905724;29;20111;-75
2021/04/18 09:32:59;;;;;;;9.93;3.80;;;14.00;51.60;;;;;;4904120;29;20059;-75
2021/04/18 09:35:27;;;;;;;10.25;4.47;;;14.00;50.10;;;;;;4908000;29;20059;-75
2021/04/18 09:37:57;;;;;;;8.18;4.50;;;14.00;50.70;;;;;;4903418;29;20111;-75
2021/04/18 09:40:35;;;;;;;7.07;4.38;;;14.10;50.70;;;;;;4906149;29;20032;-75
2021/04/18 09:43:04;;;;;;;8.38;4.25;;;14.20;50.80;;;;;;4901595;29;20509;-75
2021/04/18 09:45:31;;;;;;;8.57;4.32;;;14.50;50.90;;;;;;4906322;29;20051;-75
2021/04/18 09:48:09;;;;;;;8.80;4.25;;;14.90;50.20;;;;;;4905139;29;20032;-76
2021/04/18 09:50:35;;;;;;;10.40;4.07;;;15.10;49.30;;;;;;4906461;29;20454;-76
2021/04/18 09:53:14;;;;;;;8.30;4.05;;;15.30;48.10;;;;;;4903877;29;20045;-76
2021/04/18 09:55:53;;;;;;;;;;;15.50;47.60;;;;;;4898532;29;20179;-75
2021/04/18 09:58:35;;;;;;;9.23;4.25;;;15.60;47.80;;;;;;4902686;29;20387;-75
2021/04/18 10:01:02;;;;;;;9.18;4.85;;;15.60;48.40;;;;;;4906288;29;20036;-76
2021/04/18 10:03:39;;;;;;;11.45;4.85;;;15.70;47.60;;;;;;4902118;29;20028;-76
2021/04/18 10:06:06;;;;;;;10.38;4.53;;;15.70;48.00;;;;;;4903517;29;20525;-76
2021/04/18 10:08:34;;;;;;;13.27;4.68;;;15.60;47.20;;;;;;4909220;29;20051;-76
2021/04/18 10:11:12;;;;;;;8.75;4.13;;;15.60;48.30;;;;;;4905627;29;20099;-78
2021/04/18 10:13:39;;;;;;;8.07;4.35;;;15.40;48.60;;;;;;4914595;29;20040;-80
2021/04/18 10:16:07;;;;;;;7.07;3.72;;;15.30;49.00;;;;;;4896405;29;20032;-79
2021/04/18 10:18:34;;;;;;;9.02;4.50;;;15.20;48.50;;;;;;4900007;29;20040;-79
2021/04/18 10:21:20;;;;;;;10.93;4.63;;;15.10;48.80;;;;;;4912268;29;20111;-79
2021/04/18 10:23:47;;;;;;;8.23;4.30;;;15.00;48.50;;;;;;4906230;29;20032;-78
2021/04/18 10:26:18;;;;;;;13.27;4.68;;;14.90;49.20;;;;;;4903099;29;20389;-78
2021/04/18 10:28:44;;;;;;;9.60;4.22;;;14.90;49.60;;;;;;4893257;29;20040;-79
2021/04/18 10:31:12;;;;;;;11.07;4.32;;;14.90;49.20;;;;;;4883743;29;20028;-78
2021/04/18 10:33:38;;;;;;;8.75;3.85;;;14.80;48.50;;;;;;4898625;29;20032;-78
2021/04/18 10:36:04;;;;;;;9.38;4.40;;;14.70;49.10;;;;;;4899225;29;20528;-79
2021/04/18 10:38:30;;;;;;;10.20;4.05;;;14.60;48.80;;;;;;4906118;29;20389;-79
2021/04/18 10:40:55;;;;;;;13.00;4.22;;;14.60;48.60;;;;;;4897104;29;20395;-79
2021/04/18 10:43:21;;;;;;;6.75;3.83;;;14.50;48.60;;;;;;4903564;29;20067;-79
2021/04/18 10:45:47;;;;;;;8.38;4.30;;;14.60;49.20;;;;;;4908895;29;20639;-79
2021/04/18 10:48:12;;;;;;;12.73;4.53;;;14.50;48.20;;;;;;4919174;29;20074;-79
2021/04/18 10:50:38;;;;;;;14.23;4.47;;;14.40;48.50;;;;;;4912148;29;20032;-78
2021/04/18 10:53:04;;;;;;;9.85;4.35;;;14.50;48.70;;;;;;4900564;29;20063;-78
2021/04/18 10:55:29;;;;;;;10.98;5.30;;;14.50;49.40;;;;;;4906907;29;20028;-79
2021/04/18 10:57:55;;;;;;;11.65;5.72;;;14.60;49.00;;;;;;4906741;29;20032;-78
2021/04/18 11:00:21;;;;;;;11.63;5.95;;;14.70;49.10;;;;;;4905779;29;20040;-78
2021/04/18 11:02:47;;;;;;;13.20;5.00;;;14.80;48.70;;;;;;4895625;29;20028;-78
2021/04/18 11:05:14;;;;;;;11.85;5.90;;;14.90;48.70;;;;;;4903504;29;20518;-79
2021/04/18 11:07:39;;;;;;;13.52;8.43;;;15.10;48.00;;;;;;4909973;29;20540;-78
2021/04/18 11:10:07;;;;;;;15.20;7.18;;;15.30;47.60;;;;;;4912940;29;20127;-78
2021/04/18 11:12:32;;;;;;;9.07;4.35;;;15.50;47.40;;;;;;4898511;29;20044;-79
2021/04/18 11:14:58;;;;;;;9.13;4.07;;;15.70;46.80;;;;;;4905955;29;20028;-79
2021/04/18 11:17:24;;;;;;;9.13;4.80;;;15.70;46.70;;;;;;4912473;29;20056;-79
2021/04/18 11:19:52;;;;;;;9.82;4.00;;;15.60;46.80;;;;;;4892378;29;20483;-79
2021/04/18 11:22:18;;;;;;;11.13;5.18;;;15.30;46.60;;;;;;4902167;29;20029;-79
2021/04/18 11:24:44;;;;;;;11.05;4.38;;;15.00;46.30;;;;;;4908854;29;20115;-78
2021/04/18 11:27:10;;;;;;;8.43;3.90;;;14.90;47.40;;;;;;4904073;29;20103;-78
2021/04/18 11:29:38;;;;;;;8.82;4.13;;;14.90;47.50;;;;;;4908224;29;20033;-79
2021/04/18 11:32:04;;;;;;;10.50;4.43;;;15.30;46.60;;;;;;4911210;29;20025;-79
2021/04/18 11:34:30;;;;;;;10.55;5.40;;;15.80;46.00;;;;;;4917222;29;20287;-79
2021/04/18 11:36:55;;;;;;;12.50;4.85;;;16.20;44.40;;;;;;4919012;29;20111;-79
2021/04/18 11:39:21;;;;;;;7.07;4.45;;;16.30;44.60;;;;;;4918995;29;20106;-79
2021/04/18 11:41:47;;;;;;;6.65;4.50;;;16.30;44.30;;;;;;4919042;29;20051;-79
2021/04/18 11:44:14;;;;;;;7.15;4.53;;;16.30;44.80;;;;;;4917899;29;20029;-78
2021/04/18 11:46:42;;;;;;;10.35;4.70;;;16.20;45.10;;;;;;4909673;29;20037;-79
2021/04/18 11:49:08;;;;;;;9.93;4.32;;;16.10;45.90;;;;;;4899971;29;20036;-79
2021/04/18 11:51:35;;;;;;;10.02;4.55;;;16.00;45.30;;;;;;4900124;29;20036;-79
2021/04/18 11:54:01;;;;;;;7.93;3.85;;;15.90;45.90;;;;;;4898703;29;20132;-79
2021/04/18 11:56:26;;;;;;;7.43;4.38;;;15.90;46.10;;;;;;4898641;29;20123;-79
2021/04/18 11:58:52;;;;;;;8.13;4.32;;;16.20;45.00;;;;;;4898620;29;20029;-79
2021/04/18 12:01:18;;;;;;;13.02;4.18;;;16.30;45.70;;;;;;4898608;29;20033;-79
2021/04/18 12:03:43;;;;;;;8.10;4.55;;;16.40;47.00;;;;;;4882860;29;20045;-80
2021/04/18 12:06:09;;;;;;;9.75;4.55;;;16.60;45.60;;;;;;4897836;29;20084;-79
2021/04/18 12:08:35;;;;;;;7.97;4.22;;;16.70;43.50;;;;;;4898092;29;20052;-79
2021/04/18 12:11:02;;;;;;;8.70;4.03;;;17.00;44.20;;;;;;4883098;29;20032;-79
2021/04/18 12:13:28;;;;;;;10.82;3.95;;;17.40;44.60;;;;;;4898028;29;20606;-79
2021/04/18 12:15:53;;;;;;;7.00;3.78;;;17.70;44.10;;;;;;4900874;29;20482;-79
2021/04/18 12:18:19;;;;;;;8.85;4.10;;;18.00;43.40;;;;;;4918540;29;20033;-79
2021/04/18 12:20:45;;;;;;;8.20;4.25;;;18.10;43.80;;;;;;4901331;29;20032;-79
2021/04/18 12:23:10;;;;;;;8.10;4.60;;;18.00;43.20;;;;;;4901382;29;20039;-80
2021/04/18 12:25:36;;;;;;;8.10;4.53;;;17.80;42.70;;;;;;4901153;29;20032;-80
2021/04/18 12:28:02;;;;;;;6.22;4.18;;;17.70;42.70;;;;;;4905034;29;20036;-79
2021/04/18 12:30:28;;;;;;;7.55;4.30;;;17.50;41.80;;;;;;4912213;29;20075;-80
2021/04/18 12:32:53;;;;;;;7.50;4.03;;;17.30;43.10;;;;;;4897642;29;20044;-80
2021/04/18 12:35:19;;;;;;;6.43;4.18;;;17.10;42.90;;;;;;4898891;29;20043;-78
2021/04/18 12:37:45;;;;;;;7.78;4.20;;;17.10;42.50;;;;;;4900830;29;20474;-78
2021/04/18 12:40:11;;;;;;;7.57;4.38;;;17.00;42.50;;;;;;4917577;29;20032;-78
2021/04/18 12:42:37;;;;;;;9.35;3.92;;;17.00;43.90;;;;;;4917697;29;20036;-78